Time;durP1;ratioP1;P1;durP2;ratioP2;P2;SDS_P1;SDS_P2;PMS_P1;PMS_P2;Temp;Humidity;BMP_temperature;BMP_pressure;BME280_temperature;BME280_humidity;BME280_pressure;Samples;Min_cycle;Max_cycle;Signal;HPM_P1;HPM_P2
2021/10/10 00:00:50;;;;;;;24.98;14.00;;;;;;;5.56;72.77;101456.13;5020820;28;20385;-58
2021/10/10 00:03:36;;;;;;;27.55;14.38;;;;;;;5.62;72.52;101466.59;5038539;28;20022;-58
2021/10/10 00:06:22;;;;;;;26.48;14.27;;;;;;;5.62;72.77;101466.59;5010479;28;20046;-58
2021/10/10 00:09:08;;;;;;;31.15;13.57;;;;;;;5.60;72.84;101469.94;5019633;28;20319;-58
2021/10/10 00:11:54;;;;;;;28.83;14.07;;;;;;;5.60;72.96;101470.81;5021843;28;20088;-58
2021/10/10 00:14:39;;;;;;;27.65;13.07;;;;;;;5.62;71.99;101474.28;5026191;28;20098;-58
2021/10/10 00:17:25;;;;;;;25.15;13.52;;;;;;;5.62;72.15;101463.16;5025982;28;20210;-58
2021/10/10 00:20:12;;;;;;;25.45;13.07;;;;;;;5.46;72.54;101459.28;5034529;28;20042;-58
2021/10/10 00:22:58;;;;;;;21.52;13.10;;;;;;;5.43;72.85;101469.44;5034247;28;20022;-57
2021/10/10 00:25:43;;;;;;;25.80;13.40;;;;;;;5.48;72.62;101465.31;5024497;28;20028;-58
2021/10/10 00:28:30;;;;;;;25.13;12.60;;;;;;;5.44;72.41;101468.63;5024200;28;20034;-58
2021/10/10 00:31:16;;;;;;;26.15;13.07;;;;;;;5.35;72.80;101464.97;5024645;28;20206;-57
2021/10/10 00:34:01;;;;;;;21.23;12.60;;;;;;;5.36;73.48;101468.41;5023977;28;20030;-58
2021/10/10 00:36:47;;;;;;;24.33;12.05;;;;;;;5.34;72.59;101463.25;5024299;28;20025;-58
2021/10/10 00:39:33;;;;;;;26.50;13.80;;;;;;;5.42;73.01;101472.88;5023820;28;20030;-58
2021/10/10 00:42:19;;;;;;;28.15;12.93;;;;;;;5.43;73.55;101466.88;5032669;28;20057;-57
2021/10/10 00:45:05;;;;;;;26.10;13.75;;;;;;;5.44;72.54;101464.34;5030424;28;20098;-57
2021/10/10 00:47:51;;;;;;;26.25;12.45;;;;;;;5.42;73.32;101466.03;5024861;28;20175;-57
2021/10/10 00:50:37;;;;;;;26.25;13.10;;;;;;;5.39;73.58;101465.03;5023878;28;20334;-58
2021/10/10 00:53:23;;;;;;;22.85;12.95;;;;;;;5.11;73.03;101412.91;5024308;28;20097;-59
2021/10/10 00:56:10;;;;;;;25.35;13.52;;;;;;;5.41;73.28;101453.13;5023758;28;20030;-58
2021/10/10 00:58:58;;;;;;;27.48;13.43;;;;;;;5.39;73.43;101457.34;5023727;28;20014;-58
2021/10/10 01:01:44;;;;;;;26.75;13.00;;;;;;;5.42;73.20;101466.03;5025781;28;20100;-58
2021/10/10 01:04:30;;;;;;;22.35;13.07;;;;;;;5.34;73.66;101459.78;5024628;28;20038;-58
2021/10/10 01:07:16;;;;;;;26.20;12.48;;;;;;;5.39;73.59;101457.34;5023960;28;20029;-58
2021/10/10 01:10:04;;;;;;;24.75;14.27;;;;;;;5.43;72.82;101462.63;5022142;28;20335;-58
2021/10/10 01:12:50;;;;;;;24.98;13.77;;;;;;;5.40;72.79;101457.41;5023594;28;20045;-59
2021/10/10 01:15:36;;;;;;;24.85;13.50;;;;;;;5.40;73.13;101464.22;5022628;28;20060;-58
2021/10/10 01:18:24;;;;;;;22.20;14.05;;;;;;;5.42;72.84;101465.16;5022791;28;20037;-59
2021/10/10 01:21:10;;;;;;;24.08;13.65;;;;;;;5.40;74.01;101459.09;5022473;28;20037;-59
2021/10/10 01:23:56;;;;;;;20.30;12.25;;;;;;;5.40;73.51;101459.97;5021846;28;20061;-58
2021/10/10 01:26:41;;;;;;;24.13;13.70;;;;;;;5.39;73.29;101462.47;5006017;28;20026;-58
2021/10/10 01:29:27;;;;;;;22.15;13.98;;;;;;;5.31;73.78;101458.00;5023000;28;20030;-59
2021/10/10 01:32:13;;;;;;;24.65;12.63;;;;;;;5.34;73.88;101458.09;5023667;28;20101;-57
2021/10/10 01:34:59;;;;;;;25.48;13.95;;;;;;;5.30;74.06;101457.94;5024356;28;20230;-57
2021/10/10 01:37:45;;;;;;;26.02;13.65;;;;;;;5.28;73.79;101455.34;5022824;28;20021;-58
2021/10/10 01:40:32;;;;;;;27.95;14.13;;;;;;;5.26;73.91;101454.44;5007514;28;20029;-57
2021/10/10 01:43:18;;;;;;;28.50;14.30;;;;;;;5.27;73.43;101455.28;5024907;28;20068;-57
2021/10/10 01:46:04;;;;;;;29.98;13.82;;;;;;;4.98;73.96;101427.94;5022340;28;20017;-57
2021/10/10 01:48:50;;;;;;;24.48;13.75;;;;;;;5.11;73.47;101459.13;5022854;28;20029;-57
2021/10/10 01:51:37;;;;;;;21.42;12.65;;;;;;;5.15;73.90;101461.81;5021040;28;20054;-58
2021/10/10 01:54:22;;;;;;;23.50;13.02;;;;;;;5.19;73.10;101458.50;5010949;28;20357;-58
2021/10/10 01:57:08;;;;;;;27.98;13.45;;;;;;;5.18;73.85;101454.19;5022600;28;20342;-58
2021/10/10 01:59:55;;;;;;;22.70;12.85;;;;;;;5.19;73.74;101457.66;5022057;28;20026;-58
2021/10/10 02:02:41;;;;;;;24.80;13.15;;;;;;;5.20;73.32;101454.25;5011660;28;20021;-58
2021/10/10 02:05:27;;;;;;;22.30;12.55;;;;;;;5.23;73.21;101459.50;5021755;28;20524;-58
2021/10/10 02:08:13;;;;;;;25.48;13.48;;;;;;;5.19;73.42;101458.50;5023002;28;20029;-58
2021/10/10 02:10:58;;;;;;;24.10;12.93;;;;;;;5.22;73.95;101455.16;5031092;28;20049;-58
2021/10/10 02:13:44;;;;;;;23.70;13.45;;;;;;;5.17;74.14;101455.03;5035432;28;20199;-58
2021/10/10 02:16:31;;;;;;;23.05;14.30;;;;;;;5.18;74.41;101455.91;5026766;28;20030;-58
2021/10/10 02:19:17;;;;;;;24.88;14.73;;;;;;;5.18;73.82;101461.03;5023258;28;20614;-58
2021/10/10 02:22:03;;;;;;;24.23;14.35;;;;;;;5.18;73.93;101455.91;5024524;28;20049;-59
2021/10/10 02:24:48;;;;;;;21.90;13.95;;;;;;;5.16;73.92;101457.56;5026848;28;20084;-58
2021/10/10 02:27:34;;;;;;;21.85;13.75;;;;;;;5.04;74.55;101458.06;5021987;28;20026;-58
2021/10/10 02:30:20;;;;;;;23.70;13.60;;;;;;;5.11;74.43;101464.25;5022174;28;20034;-58
2021/10/10 02:33:06;;;;;;;25.30;15.23;;;;;;;5.12;74.55;101461.72;5024526;28;20034;-58
2021/10/10 02:35:52;;;;;;;22.60;13.57;;;;;;;4.99;74.09;101457.94;5022393;28;20354;-58
2021/10/10 02:38:38;;;;;;;21.70;13.23;;;;;;;4.99;73.96;101462.19;5024709;28;20030;-58
2021/10/10 02:41:24;;;;;;;22.08;13.48;;;;;;;4.95;74.51;101457.78;5020835;28;20298;-58
2021/10/10 02:44:11;;;;;;;28.50;13.93;;;;;;;4.78;74.26;101429.91;5021977;28;20093;-57
2021/10/10 02:46:57;;;;;;;26.48;14.35;;;;;;;4.90;73.99;101457.63;5021776;28;20036;-58
2021/10/10 02:49:43;;;;;;;25.70;14.15;;;;;;;4.98;74.19;101458.75;5024060;28;20033;-57
2021/10/10 02:52:29;;;;;;;20.88;14.52;;;;;;;4.98;75.16;101460.44;5017491;28;20022;-58
2021/10/10 02:55:15;;;;;;;21.27;13.10;;;;;;;5.00;74.00;101464.81;5025976;28;20025;-58
2021/10/10 02:58:01;;;;;;;20.00;12.98;;;;;;;4.93;74.61;101470.59;5040090;28;20290;-58
2021/10/10 03:00:47;;;;;;;26.33;14.35;;;;;;;5.00;74.15;101466.50;5025856;28;20034;-58
2021/10/10 03:03:33;;;;;;;21.83;14.60;;;;;;;4.99;74.40;101467.34;5044103;28;20088;-58
2021/10/10 03:06:19;;;;;;;22.83;13.15;;;;;;;5.04;73.99;101462.34;5027023;28;20026;-58
2021/10/10 03:09:05;;;;;;;27.17;14.57;;;;;;;4.96;73.87;101446.69;5023848;28;20068;-58
2021/10/10 03:11:51;;;;;;;25.60;13.63;;;;;;;5.04;74.53;101468.31;5025768;28;20030;-58
2021/10/10 03:14:37;;;;;;;25.90;14.40;;;;;;;4.99;74.51;101468.19;5025229;28;20263;-58
2021/10/10 03:17:22;;;;;;;24.30;15.20;;;;;;;5.03;74.37;101456.34;5026014;28;20294;-58
2021/10/10 03:20:09;;;;;;;24.05;14.15;;;;;;;4.99;74.79;101455.34;5025926;28;20033;-58
2021/10/10 03:22:54;;;;;;;25.40;14.10;;;;;;;5.06;74.71;101460.66;5029438;28;20088;-58
2021/10/10 03:25:40;;;;;;;25.67;15.02;;;;;;;5.01;74.60;101463.97;5010945;28;20053;-58
2021/10/10 03:28:26;;;;;;;23.98;14.95;;;;;;;5.06;74.91;101451.28;5009577;28;20049;-59
2021/10/10 03:31:12;;;;;;;23.00;15.10;;;;;;;5.04;74.72;101454.63;5025020;28;20068;-59
2021/10/10 03:33:58;;;;;;;28.83;14.75;;;;;;;5.07;74.35;101445.31;5025292;28;20017;-58
2021/10/10 03:36:44;;;;;;;24.10;14.20;;;;;;;5.14;74.44;101447.22;5026112;28;20029;-58
2021/10/10 03:39:29;;;;;;;25.58;14.55;;;;;;;5.14;74.90;101443.78;5026035;28;20181;-59
2021/10/10 03:42:15;;;;;;;28.90;15.98;;;;;;;5.21;74.16;101440.56;5024297;28;20212;-59
2021/10/10 03:45:02;;;;;;;28.38;14.73;;;;;;;5.21;74.52;101438.00;5025771;28;20102;-58
2021/10/10 03:47:49;;;;;;;23.63;14.38;;;;;;;5.33;74.01;101440.06;5025483;28;20211;-59
2021/10/10 03:50:35;;;;;;;28.42;14.63;;;;;;;5.30;74.54;101435.72;5025396;28;20093;-58
2021/10/10 03:53:25;;;;;;;26.23;14.55;;;;;;;5.01;75.17;101386.06;5017743;28;20055;-58
2021/10/10 03:56:12;;;;;;;26.38;14.00;;;;;;;5.38;74.06;101438.50;5025388;28;20021;-58
2021/10/10 03:58:58;;;;;;;22.48;13.55;;;;;;;5.39;73.88;101436.78;5023024;28;20017;-58
2021/10/10 04:01:44;;;;;;;20.40;12.80;;;;;;;5.41;74.18;101453.13;5024228;28;20034;-59
2021/10/10 04:04:32;;;;;;;28.98;14.60;;;;;;;5.40;74.06;101434.28;5024504;28;20022;-59
2021/10/10 04:07:19;;;;;;;27.25;13.65;;;;;;;5.56;73.48;101442.41;5024793;28;20349;-59
2021/10/10 04:10:05;;;;;;;23.45;13.80;;;;;;;5.55;73.72;101431.25;5026127;28;20026;-59
2021/10/10 04:12:52;;;;;;;24.88;13.98;;;;;;;5.58;73.58;101435.63;5024758;28;20030;-59
2021/10/10 04:15:37;;;;;;;26.70;14.02;;;;;;;5.58;73.56;101433.06;5026802;28;20117;-58
2021/10/10 04:18:23;;;;;;;26.58;14.60;;;;;;;5.58;73.59;101430.47;5024547;28;20258;-59
2021/10/10 04:21:09;;;;;;;22.85;14.10;;;;;;;5.65;74.42;101433.25;5034693;28;20025;-59
2021/10/10 04:23:55;;;;;;;29.40;14.40;;;;;;;5.67;73.31;101421.31;5029732;28;20026;-59
2021/10/10 04:26:41;;;;;;;24.05;13.85;;;;;;;5.69;73.83;101429.06;5024081;28;20226;-58
2021/10/10 04:29:27;;;;;;;23.20;13.88;;;;;;;5.71;74.21;101429.97;5037481;28;20053;-59
2021/10/10 04:32:12;;;;;;;33.97;14.25;;;;;;;5.76;73.92;101433.53;5024622;28;20239;-58
2021/10/10 04:34:59;;;;;;;26.13;13.40;;;;;;;5.84;74.28;101431.16;5024847;28;20204;-59
2021/10/10 04:37:45;;;;;;;22.05;13.73;;;;;;;5.88;74.02;101439.00;5023659;28;20029;-58
2021/10/10 04:40:31;;;;;;;26.50;14.45;;;;;;;5.93;73.73;101431.41;5024878;28;20049;-59
2021/10/10 04:43:16;;;;;;;32.42;15.23;;;;;;;6.00;73.25;101428.22;5022812;28;20058;-59
2021/10/10 04:46:02;;;;;;;30.45;14.38;;;;;;;5.96;73.02;101418.63;5011225;28;20084;-59
2021/10/10 04:48:48;;;;;;;25.92;13.98;;;;;;;6.10;73.39;101431.00;5024088;28;20061;-59
2021/10/10 04:51:34;;;;;;;24.98;14.57;;;;;;;6.19;72.54;101428.69;5021369;28;20037;-59
2021/10/10 04:54:21;;;;;;;27.95;13.10;;;;;;;6.26;72.71;101427.13;5020443;28;20420;-59
2021/10/10 04:57:07;;;;;;;28.17;14.48;;;;;;;6.29;72.39;101443.50;5022400;28;20053;-58
2021/10/10 04:59:53;;;;;;;32.40;15.07;;;;;;;6.37;72.74;101436.84;5023146;28;20069;-58
2021/10/10 05:02:39;;;;;;;23.40;13.65;;;;;;;6.42;73.17;101443.81;5021711;28;20026;-58
2021/10/10 05:05:25;;;;;;;29.75;14.27;;;;;;;6.41;72.56;101432.63;5023826;28;20029;-59
2021/10/10 05:08:11;;;;;;;32.40;13.98;;;;;;;6.52;72.36;101440.63;5023383;28;20322;-59
2021/10/10 05:10:57;;;;;;;28.00;13.45;;;;;;;6.50;72.60;101430.28;5006274;28;20057;-59
2021/10/10 05:13:43;;;;;;;35.53;15.57;;;;;;;6.64;72.51;101447.75;5023583;28;20057;-59
2021/10/10 05:16:28;;;;;;;31.77;14.63;;;;;;;6.72;72.24;101448.81;5034948;28;20112;-59
2021/10/10 05:19:14;;;;;;;27.58;13.98;;;;;;;6.82;71.99;101444.72;5035892;28;20331;-60
2021/10/10 05:22:01;;;;;;;27.80;14.55;;;;;;;6.96;70.93;101438.19;5010524;28;20211;-59
2021/10/10 05:24:47;;;;;;;21.83;12.85;;;;;;;7.07;69.59;101441.00;5035003;28;20030;-58
2021/10/10 05:27:33;;;;;;;25.30;14.45;;;;;;;7.15;69.46;101444.59;5010851;28;20026;-59
2021/10/10 05:30:20;;;;;;;28.55;13.73;;;;;;;7.25;68.55;101450.81;5023552;28;20053;-59
2021/10/10 05:33:06;;;;;;;24.67;13.88;;;;;;;7.35;68.63;101438.97;5021863;28;20107;-59
2021/10/10 05:35:52;;;;;;;23.42;12.95;;;;;;;7.44;68.35;101446.91;5021666;28;20041;-59
2021/10/10 05:38:38;;;;;;;19.95;12.68;;;;;;;7.52;67.50;101447.91;5022482;28;20167;-59
2021/10/10 05:41:24;;;;;;;29.08;13.25;;;;;;;7.62;67.84;101450.69;5024794;28;20044;-59
2021/10/10 05:44:11;;;;;;;25.73;13.48;;;;;;;7.69;66.23;101448.25;5023926;28;20057;-59
2021/10/10 05:46:56;;;;;;;25.63;12.85;;;;;;;7.82;66.66;101456.22;5022866;28;20067;-59
2021/10/10 05:49:42;;;;;;;19.85;12.20;;;;;;;7.87;65.41;101455.47;5028866;28;20075;-58
2021/10/10 05:52:28;;;;;;;19.92;12.85;;;;;;;7.92;65.38;101434.91;5018834;28;20033;-59
2021/10/10 05:55:15;;;;;;;20.20;12.82;;;;;;;7.94;65.32;101443.56;5001996;28;20037;-61
2021/10/10 05:58:04;;;;;;;18.95;12.27;;;;;;;8.10;64.36;101452.44;5022499;28;20025;-58
2021/10/10 06:00:49;;;;;;;20.63;12.10;;;;;;;8.17;64.11;101448.25;5016069;28;20045;-59
2021/10/10 06:03:38;;;;;;;18.65;11.57;;;;;;;8.23;64.42;101451.78;5019810;28;20033;-59
2021/10/10 06:06:24;;;;;;;22.00;12.20;;;;;;;8.29;64.07;101451.91;5018049;28;20030;-59
2021/10/10 06:09:10;;;;;;;16.40;12.02;;;;;;;8.42;64.46;101450.41;5021910;28;20033;-59
2021/10/10 06:11:56;;;;;;;16.45;11.38;;;;;;;8.38;63.47;101432.22;5021471;28;20048;-59
2021/10/10 06:14:42;;;;;;;20.10;11.63;;;;;;;8.62;63.65;101460.19;5023865;28;20029;-59
2021/10/10 06:17:28;;;;;;;18.27;11.38;;;;;;;8.71;63.44;101456.91;5032975;28;20026;-59
2021/10/10 06:20:14;;;;;;;18.90;10.98;;;;;;;8.76;61.87;101453.50;5024587;28;20030;-58
2021/10/10 06:23:00;;;;;;;19.95;11.73;;;;;;;9.00;61.70;101446.97;5021698;28;20344;-58
2021/10/10 06:25:46;;;;;;;19.60;11.20;;;;;;;9.54;61.38;101441.59;5023123;28;20041;-59
2021/10/10 06:28:31;;;;;;;23.27;11.38;;;;;;;10.02;59.91;101438.66;5034272;28;20025;-59
2021/10/10 06:31:18;;;;;;;20.42;11.48;;;;;;;10.74;57.76;101421.09;5022646;28;20038;-62
2021/10/10 06:34:03;;;;;;;16.52;11.68;;;;;;;11.52;56.38;101433.56;5022326;28;20029;-61
2021/10/10 06:36:49;;;;;;;20.48;11.55;;;;;;;12.04;53.61;101430.22;5022374;28;20026;-61
2021/10/10 06:39:35;;;;;;;17.92;11.25;;;;;;;12.42;52.93;101424.16;5033466;28;20036;-61
2021/10/10 06:42:21;;;;;;;21.23;11.63;;;;;;;12.47;52.60;101435.44;5004399;28;20113;-61
2021/10/10 06:45:08;;;;;;;21.30;11.40;;;;;;;12.34;51.28;101431.09;5021724;28;20380;-60
2021/10/10 06:47:54;;;;;;;18.42;11.23;;;;;;;12.27;52.67;101427.66;5020801;28;20037;-60
2021/10/10 06:50:40;;;;;;;22.42;11.30;;;;;;;12.08;51.75;101430.25;5021205;28;20022;-61
2021/10/10 06:53:26;;;;;;;25.48;11.93;;;;;;;12.12;53.14;101428.50;5021461;28;20056;-60
2021/10/10 06:56:12;;;;;;;23.35;11.05;;;;;;;12.14;54.04;101431.09;5020459;28;20072;-60
2021/10/10 06:58:58;;;;;;;19.35;10.80;;;;;;;12.14;53.05;101431.09;5044804;28;20042;-60
2021/10/10 07:01:44;;;;;;;22.58;11.80;;;;;;;12.08;52.44;101424.16;5020115;28;20025;-60
2021/10/10 07:04:30;;;;;;;12.50;9.23;;;;;;;12.08;52.58;101413.78;5006281;28;20029;-61
2021/10/10 07:07:16;;;;;;;13.80;9.10;;;;;;;12.18;51.95;101428.47;5008892;28;20030;-60
2021/10/10 07:10:05;;;;;;;19.63;10.35;;;;;;;12.16;52.31;101432.81;5022150;28;20258;-61
2021/10/10 07:12:50;;;;;;;20.10;10.20;;;;;;;12.30;51.75;101418.97;5022254;28;20049;-60
2021/10/10 07:15:37;;;;;;;16.50;9.32;;;;;;;12.54;51.54;101416.34;5021637;28;20095;-61
2021/10/10 07:18:28;;;;;;;22.30;10.60;;;;;;;12.79;50.23;101418.91;5022802;28;20322;-61
2021/10/10 07:26:56;;;;;;;19.48;8.80;;;;;;;12.63;49.39;101412.88;5021985;28;20180;-60
2021/10/10 07:29:41;;;;;;;14.70;8.23;;;;;;;12.56;49.36;101418.94;5022393;28;20036;-59
2021/10/10 07:32:28;;;;;;;10.43;6.95;;;;;;;12.51;49.18;101411.16;5024193;28;20029;-60
2021/10/10 07:35:13;;;;;;;13.40;7.50;;;;;;;12.62;50.00;101411.13;5023014;28;20113;-59
2021/10/10 07:37:59;;;;;;;15.77;8.55;;;;;;;12.63;50.42;101409.38;5024930;28;20041;-58
2021/10/10 07:40:45;;;;;;;17.08;8.25;;;;;;;12.55;49.85;101418.06;5028473;28;20373;-59
2021/10/10 07:43:32;;;;;;;20.85;9.23;;;;;;;12.53;51.29;101417.22;5026337;28;20053;-59
2021/10/10 07:46:20;;;;;;;20.85;9.75;;;;;;;12.51;49.11;101421.56;5025967;28;20041;-59
2021/10/10 07:49:08;;;;;;;18.90;9.13;;;;;;;12.50;50.65;101426.75;5025680;28;20097;-61
2021/10/10 07:51:54;;;;;;;13.27;7.78;;;;;;;12.47;50.62;101418.94;5024024;28;20041;-61
2021/10/10 07:54:40;;;;;;;18.13;8.90;;;;;;;12.39;48.45;101405.97;5023868;28;20091;-61
2021/10/10 07:57:25;;;;;;;17.50;8.45;;;;;;;12.56;50.05;101404.22;5026533;28;20196;-61
2021/10/10 08:00:12;;;;;;;16.23;8.02;;;;;;;12.63;49.31;101412.88;5024196;28;20030;-61
2021/10/10 08:03:00;;;;;;;13.88;8.00;;;;;;;12.70;48.26;101411.13;5025879;28;20394;-60
2021/10/10 08:05:46;;;;;;;18.90;10.13;;;;;;;12.76;48.06;101408.50;5021517;28;20041;-63
2021/10/10 08:08:31;;;;;;;14.00;7.55;;;;;;;12.84;47.88;101401.56;5025486;28;20046;-61
2021/10/10 08:11:17;;;;;;;13.10;5.95;;;;;;;12.92;47.20;101411.94;5024900;28;20049;-61
2021/10/10 08:14:03;;;;;;;10.85;5.75;;;;;;;12.94;47.22;101413.66;5025834;28;20030;-60
2021/10/10 08:16:49;;;;;;;10.40;6.47;;;;;;;13.03;47.51;101401.50;5022988;28;20225;-61
2021/10/10 08:19:35;;;;;;;13.75;6.65;;;;;;;13.21;47.47;101414.44;5025275;28;20026;-61
2021/10/10 08:22:21;;;;;;;14.40;6.82;;;;;;;13.23;47.21;101411.81;5024795;28;20046;-61
2021/10/10 08:25:11;;;;;;;12.05;7.30;;;;;;;13.54;45.65;101422.09;5024653;28;20030;-61
2021/10/10 08:27:57;;;;;;;16.92;6.70;;;;;;;13.72;46.02;101421.13;5042764;28;20275;-61
2021/10/10 08:30:43;;;;;;;12.45;6.07;;;;;;;13.70;46.96;101413.31;5024273;28;20026;-61
2021/10/10 08:33:28;;;;;;;19.40;11.60;;;;;;;13.90;46.42;101415.78;5024961;28;20021;-61
2021/10/10 08:36:14;;;;;;;12.52;6.55;;;;;;;14.27;45.24;101406.84;5022018;28;20286;-60
2021/10/10 08:39:00;;;;;;;9.45;6.43;;;;;;;14.65;44.02;101395.16;5023712;28;20056;-61
2021/10/10 08:41:46;;;;;;;9.32;5.85;;;;;;;14.69;43.43;101409.06;5023606;28;20038;-61
2021/10/10 08:44:39;;;;;;;11.05;5.93;;;;;;;15.12;43.14;101411.16;5018516;28;20093;-60
2021/10/10 08:47:26;;;;;;;12.77;6.72;;;;;;;15.45;42.24;101406.38;5024333;28;20032;-61
2021/10/10 08:50:33;;;;;;;19.73;6.93;;;;;;;15.47;41.66;101413.31;5023194;28;20026;-61
2021/10/10 08:53:20;;;;;;;16.98;6.43;;;;;;;15.85;41.42;101411.09;5020011;28;20026;-61
2021/10/10 08:56:06;;;;;;;16.48;6.88;;;;;;;16.81;39.72;101394.56;5024152;28;20028;-61
2021/10/10 08:58:52;;;;;;;16.92;7.32;;;;;;;17.51;38.11;101375.66;5022632;28;20033;-61
2021/10/10 09:01:39;;;;;;;18.02;6.85;;;;;;;18.17;37.09;101390.72;5028534;28;20033;-61
2021/10/10 09:04:25;;;;;;;13.68;6.32;;;;;;;18.49;37.33;101395.13;5025168;28;20220;-61
2021/10/10 09:07:11;;;;;;;11.95;6.07;;;;;;;18.45;35.44;101378.63;5036938;28;20029;-61
2021/10/10 09:10:32;;;;;;;15.32;6.47;;;;;;;18.73;34.73;101341.09;5018927;28;20029;-61
2021/10/10 09:13:19;;;;;;;9.88;5.88;;;;;;;18.48;36.37;101387.31;5037139;28;20052;-62
2021/10/10 09:16:07;;;;;;;15.23;6.45;;;;;;;17.47;36.42;101344.34;5023981;28;20033;-61
2021/10/10 09:18:54;;;;;;;14.30;5.97;;;;;;;17.34;37.54;101385.66;5022922;28;20060;-60
2021/10/10 09:21:41;;;;;;;13.45;5.85;;;;;;;16.59;37.40;101386.28;5025383;28;20246;-61
2021/10/10 09:24:27;;;;;;;15.57;5.53;;;;;;;16.14;37.43;101388.84;5024154;28;20350;-61
2021/10/10 09:27:14;;;;;;;7.72;4.85;;;;;;;16.13;38.75;101392.31;5020746;28;20041;-61
2021/10/10 09:30:04;;;;;;;8.85;4.80;;;;;;;15.82;38.31;101385.00;5020404;28;20021;-60
2021/10/10 09:32:56;;;;;;;7.35;5.03;;;;;;;15.57;38.63;101381.88;5024043;28;20230;-61
2021/10/10 09:35:42;;;;;;;9.25;5.20;;;;;;;15.46;38.91;101385.50;5025159;28;20202;-61
2021/10/10 09:38:29;;;;;;;10.75;5.35;;;;;;;15.33;39.44;101382.19;5021276;28;20084;-61
2021/10/10 09:41:26;;;;;;;12.45;4.97;;;;;;;15.20;39.34;101378.00;5023822;28;20026;-61
2021/10/10 09:47:05;;;;;;;7.93;5.38;;;;;;;14.96;40.08;101368.75;5023035;28;20018;-60
2021/10/10 09:49:51;;;;;;;13.88;5.82;;;;;;;15.08;40.76;101367.72;5024357;28;20041;-61
2021/10/10 09:52:37;;;;;;;10.48;4.68;;;;;;;15.15;40.71;101369.41;5022523;28;20029;-61
2021/10/10 09:55:23;;;;;;;15.38;5.20;;;;;;;15.10;40.48;101368.56;4996099;28;20057;-61
2021/10/10 09:58:09;;;;;;;13.20;5.20;;;;;;;14.91;39.79;101371.41;5022992;28;20025;-62
2021/10/10 10:01:14;;;;;;;11.48;4.55;;;;;;;14.62;39.74;101315.25;5023020;28;20257;-61
2021/10/10 10:04:11;;;;;;;6.18;5.28;;;;;;;14.85;40.34;101368.91;5035995;28;20034;-63
2021/10/10 10:06:57;;;;;;;13.27;4.93;;;;;;;14.87;40.52;101361.91;5021415;28;20033;-63
2021/10/10 10:09:49;;;;;;;9.88;5.35;;;;;;;14.93;40.23;101360.97;5022771;28;20056;-63
2021/10/10 10:12:35;;;;;;;;;;;;;;;14.87;39.52;101355.84;5024903;28;20033;-62
2021/10/10 10:15:33;;;;;;;11.23;5.53;;;;;;;14.94;41.01;101360.09;5023750;28;19992;-61
2021/10/10 10:18:19;;;;;;;15.10;5.63;;;;;;;14.88;40.12;101363.63;5013982;28;20339;-61
2021/10/10 10:21:05;;;;;;;7.85;5.25;;;;;;;14.90;40.42;101359.25;5022826;28;20095;-62
2021/10/10 10:23:56;;;;;;;11.85;5.65;;;;;;;14.86;41.47;101362.78;5021571;28;20141;-62
2021/10/10 10:26:42;;;;;;;12.55;5.80;;;;;;;14.75;39.61;101362.91;5022775;28;20030;-63
2021/10/10 10:29:30;;;;;;;10.32;5.65;;;;;;;14.45;40.64;101309.31;5037779;28;20029;-61
2021/10/10 10:32:17;;;;;;;11.02;6.18;;;;;;;14.74;40.46;101365.53;5005917;28;20038;-62
2021/10/10 10:35:12;;;;;;;13.98;5.85;;;;;;;14.69;40.79;101365.56;5008035;28;20030;-60
2021/10/10 10:37:58;;;;;;;10.32;5.05;;;;;;;14.79;40.97;101351.56;5022319;28;20259;-61
2021/10/10 10:40:44;;;;;;;10.85;6.00;;;;;;;14.81;40.29;101348.94;5036681;28;20257;-61
2021/10/10 10:43:35;;;;;;;11.93;5.57;;;;;;;14.80;41.04;101366.31;5023854;28;20042;-62
2021/10/10 10:46:21;;;;;;;9.07;5.25;;;;;;;14.71;40.63;101336.88;5022611;28;20044;-61
2021/10/10 10:49:07;;;;;;;11.07;6.18;;;;;;;14.72;40.47;101338.59;5024290;28;20068;-62
2021/10/10 10:52:21;;;;;;;9.20;6.20;;;;;;;14.84;40.41;101343.69;5022671;28;20021;-61
2021/10/10 10:55:19;;;;;;;10.27;5.43;;;;;;;14.70;40.70;101309.94;5023661;28;20317;-61
2021/10/10 10:58:15;;;;;;;8.60;5.53;;;;;;;14.89;40.64;101325.34;5018856;28;20029;-62
2021/10/10 11:01:05;;;;;;;12.40;5.63;;;;;;;14.83;40.12;101341.94;5022096;28;20029;-62
2021/10/10 11:03:51;;;;;;;7.25;4.93;;;;;;;14.95;40.91;101338.31;5022996;28;20123;-62
2021/10/10 11:06:53;;;;;;;9.27;5.47;;;;;;;14.94;39.69;101332.25;5024526;28;20049;-63
2021/10/10 11:09:45;;;;;;;9.40;5.30;;;;;;;14.84;39.42;101331.50;5022314;28;20072;-61
2021/10/10 11:12:31;;;;;;;13.75;4.82;;;;;;;14.87;40.18;101338.41;5024900;28;20252;-61
2021/10/10 11:15:17;;;;;;;8.75;4.75;;;;;;;14.88;39.07;101334.06;5024877;28;20049;-62
2021/10/10 11:18:03;;;;;;;9.30;5.07;;;;;;;14.80;38.69;101315.91;5025171;28;20222;-59
2021/10/10 11:21:06;;;;;;;11.15;4.72;;;;;;;14.87;38.63;101317.56;5022847;28;20157;-61
2021/10/10 11:23:56;;;;;;;11.18;4.63;;;;;;;14.96;39.81;101333.09;5025105;28;20032;-62
2021/10/10 11:26:42;;;;;;;8.38;4.60;;;;;;;14.98;39.14;101328.72;5026855;28;20030;-62
2021/10/10 11:29:28;;;;;;;8.60;5.22;;;;;;;14.96;39.45;101322.66;5041608;28;20254;-62
2021/10/10 11:32:14;;;;;;;10.88;4.82;;;;;;;14.92;38.84;101320.97;5036265;28;20029;-63
2021/10/10 11:35:00;;;;;;;6.88;4.57;;;;;;;14.99;39.22;101311.31;5025639;28;20022;-61
2021/10/10 11:38:02;;;;;;;18.42;12.48;;;;;;;14.97;39.12;101316.53;5026967;28;20029;-61
2021/10/10 11:40:59;;;;;;;10.63;6.43;;;;;;;14.95;39.34;101315.72;5026295;28;20346;-62
2021/10/10 11:44:01;;;;;;;9.88;4.93;;;;;;;14.91;38.33;101316.63;5025698;28;20076;-61
2021/10/10 11:46:51;;;;;;;13.45;5.38;;;;;;;14.91;39.37;101310.56;5026521;28;20021;-62
2021/10/10 11:49:42;;;;;;;8.70;4.80;;;;;;;14.79;39.32;101293.31;5025201;28;20030;-62
2021/10/10 11:52:36;;;;;;;9.38;5.68;;;;;;;14.66;39.59;101261.31;5026524;28;20057;-61
2021/10/10 11:55:35;;;;;;;10.93;5.18;;;;;;;14.95;39.41;101313.09;5025922;28;20381;-62
2021/10/10 11:58:24;;;;;;;10.63;5.63;;;;;;;14.92;40.50;101305.31;5025817;28;20041;-62
2021/10/10 12:01:11;;;;;;;10.10;4.93;;;;;;;14.88;39.31;101306.25;5034580;28;20057;-63
2021/10/10 12:03:57;;;;;;;10.98;5.75;;;;;;;14.90;39.36;101304.47;5028871;28;20217;-61
2021/10/10 12:06:49;;;;;;;10.57;4.65;;;;;;;14.86;40.00;101289.72;5036889;28;20096;-61
2021/10/10 12:09:47;;;;;;;;;;;;;;;14.87;38.93;101298.44;5022542;28;20025;-62
2021/10/10 12:12:33;;;;;;;9.05;4.95;;;;;;;14.87;39.32;101304.50;5026884;28;19913;-62
2021/10/10 12:15:21;;;;;;;8.52;4.78;;;;;;;14.84;39.90;101299.34;5026444;28;20081;-61
2021/10/10 12:18:14;;;;;;;13.02;5.63;;;;;;;14.78;40.29;101292.47;5029950;28;20060;-62
2021/10/10 12:21:30;;;;;;;9.55;5.10;;;;;;;14.48;39.53;101244.13;5020102;28;20009;-61
2021/10/10 12:24:18;;;;;;;21.17;12.75;;;;;;;14.76;40.24;101293.34;5036346;28;20084;-62
2021/10/10 12:27:03;;;;;;;10.68;5.68;;;;;;;14.77;40.25;101284.66;5029537;28;20022;-62
2021/10/10 12:29:49;;;;;;;8.65;5.13;;;;;;;14.74;39.94;101279.47;5026160;28;20033;-62
2021/10/10 12:32:35;;;;;;;12.88;5.03;;;;;;;14.72;39.45;101281.22;5024721;28;20097;-62
2021/10/10 12:35:21;;;;;;;10.50;5.78;;;;;;;14.73;40.78;101278.59;5035986;28;20061;-61
2021/10/10 12:38:07;;;;;;;8.90;4.68;;;;;;;14.75;39.83;101275.97;5024632;28;20022;-61
2021/10/10 12:40:53;;;;;;;8.13;5.55;;;;;;;14.71;39.11;101267.34;5024346;28;20037;-61
2021/10/10 12:43:41;;;;;;;10.70;5.47;;;;;;;14.69;39.60;101270.84;5024961;28;20042;-61
2021/10/10 12:46:28;;;;;;;10.18;5.50;;;;;;;14.67;40.00;101261.28;5022230;28;20049;-61
2021/10/10 12:49:13;;;;;;;10.45;4.95;;;;;;;14.70;40.74;101264.75;5023810;28;20029;-62
2021/10/10 12:52:05;;;;;;;11.60;5.38;;;;;;;14.63;40.72;101253.53;5025442;28;20335;-61
2021/10/10 12:54:51;;;;;;;11.02;5.35;;;;;;;14.62;40.27;101255.28;5026349;28;20029;-62
2021/10/10 12:57:40;;;;;;;9.02;5.03;;;;;;;14.58;39.47;101255.28;5025008;28;20088;-62